Time;durP1;ratioP1;P1;durP2;ratioP2;P2;SDS_P1;SDS_P2;PMS_P1;PMS_P2;Temp;Humidity;BMP_temperature;BMP_pressure;BME280_temperature;BME280_humidity;BME280_pressure;Samples;Min_cycle;Max_cycle;Signal;HPM_P1;HPM_P2
2021/04/13 00:01:31;;;;;;;;;;;;;;;5.72;72.09;99988.50;5096788;28;19947;-68
2021/04/13 00:04:03;;;;;;;;;;;;;;;5.68;72.13;99992.66;5096765;28;19970;-68
2021/04/13 00:06:35;;;;;;;;;;;;;;;5.66;72.24;99993.44;5096670;28;19928;-68
2021/04/13 00:09:12;;;;;;;;;;;;;;;5.67;72.48;99985.00;5096697;28;20408;-69
2021/04/13 00:11:41;;;;;;;;;;;;;;;5.63;72.32;99993.34;5096644;28;19924;-66
2021/04/13 00:14:12;;;;;;;;;;;;;;;5.59;72.21;99997.47;5096400;28;20279;-67
2021/04/13 00:16:41;;;;;;;;;;;;;;;5.59;72.26;99996.63;5096503;28;20016;-69
2021/04/13 00:19:08;;;;;;;;;;;;;;;5.62;71.88;99992.50;5096747;28;19931;-68
2021/04/13 00:21:38;;;;;;;;;;;;;;;5.67;72.42;100005.25;5078384;28;19924;-68
2021/04/13 00:24:10;;;;;;;;;;;;;;;5.64;72.02;100005.19;5078631;28;20266;-69
2021/04/13 00:26:38;;;;;;;;;;;;;;;5.64;72.44;100010.25;5096327;28;19928;-69
2021/04/13 00:29:10;;;;;;;;;;;;;;;5.64;71.83;100015.34;5078575;28;20304;-68
2021/04/13 00:31:40;;;;;;;;;;;;;;;5.59;71.72;100002.53;5096378;28;19924;-71
2021/04/13 00:34:13;;;;;;;;;;;;;;;5.62;72.18;100011.88;5096076;28;19924;-68
2021/04/13 00:36:41;;;;;;;;;;;;;;;5.59;71.56;100006.75;5096131;28;19931;-69
2021/04/13 00:39:14;;;;;;;;;;;;;;;5.53;71.96;100006.59;5096043;28;19928;-70
2021/04/13 00:41:44;;;;;;;;;;;;;;;5.49;71.94;100025.06;5096117;28;20457;-68
2021/04/13 00:44:12;;;;;;;;;;;;;;;5.51;71.55;100003.19;5095876;28;20371;-71
2021/04/13 00:46:44;;;;;;;;;;;;;;;5.47;71.50;99991.28;5095683;28;20361;-70
2021/04/13 00:49:13;;;;;;;;;;;;;;;5.49;71.65;99994.69;5096345;28;19931;-69
2021/04/13 00:51:44;;;;;;;;;;;;;;;5.47;71.47;99981.16;5095838;28;19924;-67
2021/04/13 00:54:16;;;;;;;;;;;;;;;5.49;72.02;99969.38;5095758;28;19970;-68
2021/04/13 00:56:44;;;;;;;;;;;;;;;5.46;71.65;99979.44;5095721;28;19955;-69
2021/04/13 00:59:30;;;;;;;;;;;;;;;5.42;71.83;99984.41;5078177;28;19924;-70
2021/04/13 01:02:00;;;;;;;;;;;;;;;5.39;71.87;99984.34;5095910;28;19924;-70
2021/04/13 01:04:49;;;;;;;;;;;;;;;5.37;71.52;99985.97;5095669;28;19931;-68
2021/04/13 01:07:18;;;;;;;;;;;;;;;5.41;71.78;99990.31;5095525;28;19924;-68
2021/04/13 01:09:48;;;;;;;;;;;;;;;5.40;72.12;99986.06;5095379;28;19924;-69
2021/04/13 01:12:19;;;;;;;;;;;;;;;5.40;71.72;99991.13;5095579;28;19931;-68
2021/04/13 01:14:47;;;;;;;;;;;;;;;5.38;71.96;99996.94;5095744;28;19946;-69
2021/04/13 01:17:16;;;;;;;;;;;;;;;5.36;71.99;99996.06;5095325;28;19924;-69
2021/04/13 01:19:49;;;;;;;;;;;;;;;5.36;72.09;100004.50;5095303;28;19927;-69
2021/04/13 01:22:25;;;;;;;;;;;;;;;5.38;71.45;100007.94;5095440;28;20263;-69
2021/04/13 01:24:53;;;;;;;;;;;;;;;5.40;71.18;100016.41;5095303;28;19924;-70
2021/04/13 01:27:22;;;;;;;;;;;;;;;5.42;71.49;100014.78;5094882;28;19970;-70
2021/04/13 01:29:52;;;;;;;;;;;;;;;5.44;71.91;100022.44;5094919;28;20023;-68
2021/04/13 01:32:23;;;;;;;;;;;;;;;5.45;71.51;100020.75;5076885;28;19970;-70
2021/04/13 01:34:58;;;;;;;;;;;;;;;5.40;71.38;100018.09;5095056;28;20404;-69
2021/04/13 01:37:35;;;;;;;;;;;;;;;5.39;71.44;100018.94;5095160;28;19923;-68
2021/04/13 01:40:16;;;;;;;;;;;;;;;5.43;71.79;100018.16;5095247;28;19924;-69
2021/04/13 01:42:44;;;;;;;;;;;;;;;5.43;71.26;100000.47;5095196;28;20034;-70
2021/04/13 01:45:13;;;;;;;;;;;;;;;5.42;71.13;100007.19;5094702;28;19942;-69
2021/04/13 01:47:43;;;;;;;;;;;;;;;5.39;71.44;100004.59;5094731;28;20435;-68
2021/04/13 01:50:14;;;;;;;;;;;;;;;5.38;71.39;100000.34;5094675;28;19924;-68
2021/04/13 01:52:43;;;;;;;;;;;;;;;5.41;71.44;100000.44;5094741;28;20381;-71
2021/04/13 01:55:12;;;;;;;;;;;;;;;5.40;71.29;99997.84;5094815;28;20034;-69
2021/04/13 01:57:42;;;;;;;;;;;;;;;5.47;71.01;99986.22;5094689;28;20019;-70
2021/04/13 02:00:13;;;;;;;;;;;;;;;5.45;70.52;99987.84;5094601;28;19924;-70
2021/04/13 02:02:46;;;;;;;;;;;;;;;5.45;70.65;99987.84;5076841;28;19924;-69
2021/04/13 02:05:16;;;;;;;;;;;;;;;5.44;70.31;99981.94;5094485;28;19932;-69
2021/04/13 02:07:51;;;;;;;;;;;;;;;5.45;70.66;99987.84;5094535;28;19934;-68
2021/04/13 02:10:25;;;;;;;;;;;;;;;5.48;70.29;99995.50;5094141;28;19924;-68
2021/04/13 02:12:55;;;;;;;;;;;;;;;5.47;70.09;100006.47;5094076;28;20296;-69
2021/04/13 02:15:27;;;;;;;;;;;;;;;5.46;70.03;100002.22;5076276;28;19931;-70
2021/04/13 02:17:59;;;;;;;;;;;;;;;5.46;70.04;100009.81;5094257;28;19935;-70
2021/04/13 02:20:29;;;;;;;;;;;;;;;5.46;70.14;100005.59;5094160;28;19973;-68
2021/04/13 02:22:57;;;;;;;;;;;;;;;5.48;69.99;99998.91;5094419;28;19947;-69
2021/04/13 02:25:28;;;;;;;;;;;;;;;5.52;69.78;99997.31;5094100;28;19954;-68
2021/04/13 02:27:57;;;;;;;;;;;;;;;5.49;69.43;99987.09;5094084;28;20404;-69
2021/04/13 02:30:27;;;;;;;;;;;;;;;5.49;69.31;99992.16;5093919;28;19935;-69
2021/04/13 02:32:57;;;;;;;;;;;;;;;5.47;69.04;99987.03;5094071;28;19931;-69
2021/04/13 02:35:28;;;;;;;;;;;;;;;5.45;69.47;99982.81;5093923;28;19979;-69
2021/04/13 02:37:58;;;;;;;;;;;;;;;5.46;69.20;99979.44;5076026;28;19923;-69
2021/04/13 02:40:27;;;;;;;;;;;;;;;5.45;69.51;99972.66;5093799;28;19932;-70
2021/04/13 02:42:57;;;;;;;;;;;;;;;5.45;69.22;99977.72;5093872;28;19928;-69
2021/04/13 02:45:28;;;;;;;;;;;;;;;5.48;69.47;99980.31;5093777;28;19967;-69
2021/04/13 02:48:00;;;;;;;;;;;;;;;5.44;69.25;99966.75;5093809;28;20086;-70
2021/04/13 02:50:31;;;;;;;;;;;;;;;5.47;68.97;99971.03;5093629;28;19952;-69
2021/04/13 02:53:01;;;;;;;;;;;;;;;5.45;69.32;99970.16;5075858;28;19924;-69
2021/04/13 02:55:33;;;;;;;;;;;;;;;5.42;69.30;99971.75;5076006;28;19966;-70
2021/04/13 02:58:02;;;;;;;;;;;;;;;5.42;69.29;99969.22;5093439;28;19924;-68
2021/04/13 03:00:31;;;;;;;;;;;;;;;5.38;69.02;99962.38;5093799;28;19924;-67
2021/04/13 03:03:03;;;;;;;;;;;;;;;5.36;68.82;99969.09;5093881;28;19930;-66
2021/04/13 03:05:32;;;;;;;;;;;;;;;5.35;68.75;99959.78;5093865;28;20010;-69
2021/04/13 03:08:04;;;;;;;;;;;;;;;5.36;68.35;99964.03;5093520;28;19970;-70
2021/04/13 03:10:33;;;;;;;;;;;;;;;5.39;68.72;99959.06;5073198;28;20038;-69
2021/04/13 03:13:02;;;;;;;;;;;;;;;5.39;68.33;99959.06;5055458;28;19925;-68
2021/04/13 03:15:31;;;;;;;;;;;;;;;5.37;67.98;99955.59;5073303;28;19925;-70
2021/04/13 03:18:00;;;;;;;;;;;;;;;5.38;68.06;99952.25;5073669;28;19924;-69
2021/04/13 03:20:29;;;;;;;;;;;;;;;5.38;67.47;99956.47;5073409;28;20007;-70
2021/04/13 03:22:59;;;;;;;;;;;;;;;5.38;67.66;99957.31;5075209;28;19932;-69
2021/04/13 03:25:35;;;;;;;;;;;;;;;5.36;67.08;99953.91;5077537;28;19970;-71
2021/04/13 03:28:04;;;;;;;;;;;;;;;5.35;67.34;99962.31;5077289;28;19955;-68
2021/04/13 03:30:34;;;;;;;;;;;;;;;5.36;67.21;99953.91;5059095;28;20289;-69
2021/04/13 03:33:04;;;;;;;;;;;;;;;5.39;67.39;99959.06;5077089;28;19924;-69
2021/04/13 03:35:32;;;;;;;;;;;;;;;5.40;67.03;99955.69;5077294;28;19925;-68
2021/04/13 03:38:03;;;;;;;;;;;;;;;5.42;66.73;99955.75;5077007;28;19931;-68
2021/04/13 03:40:34;;;;;;;;;;;;;;;5.44;66.55;99961.69;5076840;28;20480;-69
2021/04/13 03:43:03;;;;;;;;;;;;;;;5.47;66.55;99971.03;5077033;28;19954;-68
2021/04/13 03:45:31;;;;;;;;;;;;;;;5.46;66.99;99966.78;5076651;28;19931;-70
2021/04/13 03:48:01;;;;;;;;;;;;;;;5.48;66.36;99970.19;5077517;28;19925;-70
2021/04/13 03:50:44;;;;;;;;;;;;;;;5.52;66.27;99959.34;5076564;28;20011;-69
2021/04/13 03:53:13;;;;;;;;;;;;;;;5.54;66.34;99966.16;5054609;28;20299;-70
2021/04/13 03:55:55;;;;;;;;;;;;;;;5.60;65.77;99967.94;5054544;28;19933;-69
2021/04/13 03:58:24;;;;;;;;;;;;;;;5.59;65.87;99958.66;5054471;28;19925;-68
2021/04/13 04:00:53;;;;;;;;;;;;;;;5.60;65.60;99952.75;5054384;28;19932;-70
2021/04/13 04:03:21;;;;;;;;;;;;;;;5.60;65.15;99952.75;5054449;28;19928;-69
2021/04/13 04:05:49;;;;;;;;;;;;;;;5.56;65.17;99945.94;5054371;28;20034;-69
2021/04/13 04:08:22;;;;;;;;;;;;;;;5.57;65.60;99952.69;5054257;28;19925;-67
2021/04/13 04:10:51;;;;;;;;;;;;;;;5.58;65.54;99941.75;5054331;28;19924;-68
2021/04/13 04:13:22;;;;;;;;;;;;;;;5.61;65.21;99939.31;5054169;28;19932;-69
2021/04/13 04:15:51;;;;;;;;;;;;;;;5.61;65.43;99934.25;5054311;28;19953;-67
2021/04/13 04:18:25;;;;;;;;;;;;;;;5.60;64.91;99947.69;5054297;28;19931;-69
2021/04/13 04:20:53;;;;;;;;;;;;;;;5.64;64.79;99939.38;5054279;28;19931;-68
2021/04/13 04:23:26;;;;;;;;;;;;;;;5.64;65.13;99944.44;5054073;28;19925;-69
2021/04/13 04:25:58;;;;;;;;;;;;;;;5.65;64.91;99953.72;5037194;28;19937;-69
2021/04/13 04:28:28;;;;;;;;;;;;;;;5.65;65.08;99962.19;5053991;28;20295;-69
2021/04/13 04:31:19;;;;;;;;;;;;;;;5.62;64.56;99971.38;5070074;28;19928;-68
2021/04/13 04:33:47;;;;;;;;;;;;;;;5.63;64.73;99965.50;5075748;28;20374;-70
2021/04/13 04:36:17;;;;;;;;;;;;;;;5.62;64.87;99972.22;5075892;28;20019;-68
2021/04/13 04:38:46;;;;;;;;;;;;;;;5.63;64.83;99973.97;5058353;28;20289;-69
2021/04/13 04:41:13;;;;;;;;;;;;;;;5.64;64.04;99962.16;5076534;28;20366;-71
2021/04/13 04:43:44;;;;;;;;;;;;;;;5.64;64.24;99965.53;5075775;28;19979;-69
2021/04/13 04:46:29;;;;;;;;;;;;;;;5.67;64.62;99975.72;5075792;28;19932;-69
2021/04/13 04:49:00;;;;;;;;;;;;;;;5.66;64.20;99968.13;5075642;28;19978;-69
2021/04/13 04:51:28;;;;;;;;;;;;;;;5.63;63.93;99968.03;5075700;28;19931;-69
2021/04/13 04:53:56;;;;;;;;;;;;;;;5.64;63.91;99969.75;5075795;28;20011;-70
2021/04/13 04:56:24;;;;;;;;;;;;;;;5.68;64.30;99969.00;5075329;28;19947;-70
2021/04/13 04:58:57;;;;;;;;;;;;;;;5.74;64.12;99976.72;5075374;28;19924;-69
2021/04/13 05:01:25;;;;;;;;;;;;;;;5.67;63.42;99964.75;5075429;28;19932;-71
2021/04/13 05:03:52;;;;;;;;;;;;;;;5.66;63.34;99975.72;5075859;28;19931;-67
2021/04/13 05:06:20;;;;;;;;;;;;;;;5.67;63.31;99988.38;5075526;28;20282;-68
2021/04/13 05:08:47;;;;;;;;;;;;;;;5.73;63.92;99986.03;5090185;28;19930;-70
2021/04/13 05:11:16;;;;;;;;;;;;;;;5.71;63.33;99991.88;5095281;28;19928;-71
2021/04/13 05:13:44;;;;;;;;;;;;;;;5.69;63.39;99979.16;5095302;28;19974;-69
2021/04/13 05:16:12;;;;;;;;;;;;;;;5.66;63.16;99994.28;5095579;28;19924;-69
2021/04/13 05:18:39;;;;;;;;;;;;;;;5.67;63.60;100002.72;5095210;28;19960;-69
2021/04/13 05:21:07;;;;;;;;;;;;;;;5.66;63.54;99993.44;5095486;28;19927;-68
2021/04/13 05:23:34;;;;;;;;;;;;;;;5.65;62.68;99996.78;5095434;28;19981;-70
2021/04/13 05:26:03;;;;;;;;;;;;;;;5.65;62.83;100006.91;5095427;28;19924;-70
2021/04/13 05:28:31;;;;;;;;;;;;;;;5.67;62.98;99990.91;5095017;28;19931;-69
2021/04/13 05:30:59;;;;;;;;;;;;;;;5.71;63.01;99996.94;5094993;28;19927;-70
2021/04/13 05:33:27;;;;;;;;;;;;;;;5.72;62.99;99993.56;5094946;28;19924;-67
2021/04/13 05:35:55;;;;;;;;;;;;;;;5.72;62.79;99991.03;5094897;28;19935;-68
2021/04/13 05:38:26;;;;;;;;;;;;;;;5.72;62.69;99988.50;5094837;28;19978;-69
2021/04/13 05:40:56;;;;;;;;;;;;;;;5.77;62.49;99986.94;5094859;28;19923;-68
2021/04/13 05:43:25;;;;;;;;;;;;;;;5.76;62.56;99990.31;5094883;28;19931;-70
2021/04/13 05:45:57;;;;;;;;;;;;;;;5.77;62.48;99997.06;5093665;28;19924;-70
2021/04/13 05:48:25;;;;;;;;;;;;;;;5.80;62.80;99992.06;5094692;28;20002;-70
2021/04/13 05:50:53;;;;;;;;;;;;;;;5.81;62.45;99993.78;5094501;28;20435;-71
2021/04/13 05:53:20;;;;;;;;;;;;;;;5.81;62.70;99983.63;5095192;28;19963;-67
2021/04/13 05:55:48;;;;;;;;;;;;;;;5.83;62.67;99971.91;5094538;28;19959;-70
2021/04/13 05:58:18;;;;;;;;;;;;;;;5.84;62.62;99976.13;5094507;28;20027;-70
2021/04/13 06:00:47;;;;;;;;;;;;;;;5.85;62.20;99990.53;5094442;28;19928;-69
2021/04/13 06:03:17;;;;;;;;;;;;;;;5.81;62.60;99981.09;5094463;28;20373;-68
2021/04/13 06:05:44;;;;;;;;;;;;;;;5.79;62.07;99995.41;5094461;28;19924;-71
2021/04/13 06:08:12;;;;;;;;;;;;;;;5.76;61.97;99992.84;5094407;28;19977;-69
2021/04/13 06:10:41;;;;;;;;;;;;;;;5.78;62.40;99992.03;5094211;28;19928;-69
2021/04/13 06:13:09;;;;;;;;;;;;;;;5.80;62.43;99989.53;5094308;28;20327;-71
2021/04/13 06:15:36;;;;;;;;;;;;;;;5.84;62.73;99991.31;5094521;28;19924;-70
2021/04/13 06:18:05;;;;;;;;;;;;;;;5.84;62.42;99983.72;5094818;28;20019;-70
2021/04/13 06:20:34;;;;;;;;;;;;;;;5.88;61.71;99995.66;5094127;28;19955;-69
2021/04/13 06:23:01;;;;;;;;;;;;;;;5.89;61.66;100002.44;5094236;28;19924;-69
2021/04/13 06:25:30;;;;;;;;;;;;;;;5.98;62.10;99997.56;5094238;28;19924;-67
2021/04/13 06:27:58;;;;;;;;;;;;;;;6.02;62.07;99999.38;5094046;28;20373;-69
2021/04/13 06:30:27;;;;;;;;;;;;;;;6.05;61.76;99995.22;5093909;28;19956;-70
2021/04/13 06:33:00;;;;;;;;;;;;;;;6.06;61.62;99991.88;5094388;28;19924;-68
2021/04/13 06:35:28;;;;;;;;;;;;;;;6.12;60.98;99982.69;5093890;28;20369;-70
2021/04/13 06:37:59;;;;;;;;;;;;;;;6.14;61.01;99994.59;5093916;28;19924;-69
2021/04/13 06:40:37;;;;;;;;;;;;;;;6.21;60.61;99981.22;5093842;28;19931;-70
2021/04/13 06:43:11;;;;;;;;;;;;;;;6.37;60.77;99988.31;5094170;28;19935;-69
2021/04/13 06:45:47;;;;;;;;;;;;;;;6.47;60.62;99995.28;5093657;28;19977;-70
2021/04/13 06:48:22;;;;;;;;;;;;;;;6.44;60.21;99985.09;5094058;28;19928;-69
2021/04/13 06:50:54;;;;;;;;;;;;;;;6.47;60.37;99990.22;5093784;28;19924;-71
2021/04/13 06:53:28;;;;;;;;;;;;;;;6.51;59.90;99992.00;5093765;28;20013;-70
2021/04/13 06:56:07;;;;;;;;;;;;;;;6.66;60.06;100007.53;5093630;28;19935;-69
2021/04/13 06:58:41;;;;;;;;;;;;;;;6.85;59.65;100002.78;5093641;28;19931;-73
2021/04/13 07:01:14;;;;;;;;;;;;;;;6.92;59.57;99994.47;5093974;28;19956;-70
2021/04/13 07:03:46;;;;;;;;;;;;;;;7.00;59.15;100003.94;5093474;28;20294;-70
2021/04/13 07:06:38;;;;;;;;;;;;;;;6.97;58.71;100003.03;5093599;28;19924;-69
2021/04/13 07:09:17;;;;;;;;;;;;;;;6.87;58.24;100006.22;5093503;28;19924;-69
2021/04/13 07:11:48;;;;;;;;;;;;;;;6.87;59.00;99996.06;5093550;28;19935;-70
2021/04/13 07:14:19;;;;;;;;;;;;;;;6.85;58.79;100003.66;5093528;28;19924;-69
2021/04/13 07:16:51;;;;;;;;;;;;;;;6.83;59.00;100004.44;5093976;28;19956;-70
2021/04/13 07:19:20;;;;;;;;;;;;;;;6.83;59.24;100012.06;5093599;28;19924;-69
2021/04/13 07:21:51;;;;;;;;;;;;;;;6.79;59.14;100017.91;5093555;28;19932;-69
2021/04/13 07:24:22;;;;;;;;;;;;;;;6.77;59.63;100010.25;5093552;28;19928;-71
2021/04/13 07:26:54;;;;;;;;;;;;;;;6.74;59.51;100025.44;5093668;28;19931;-72
2021/04/13 07:29:24;;;;;;;;;;;;;;;6.78;59.79;100016.19;5075384;28;19924;-71
2021/04/13 07:31:59;;;;;;;;;;;;;;;6.79;60.02;100013.66;5093377;28;20020;-70
2021/04/13 07:34:28;;;;;;;;;;;;;;;6.75;59.50;100022.91;5093298;28;19930;-71
2021/04/13 07:37:00;;;;;;;;;;;;;;;6.74;59.35;100026.25;5093283;28;20283;-69
2021/04/13 07:39:29;;;;;;;;;;;;;;;6.73;59.50;100029.63;5093405;28;19956;-70
2021/04/13 07:42:00;;;;;;;;;;;;;;;6.67;59.42;100021.88;5093509;28;19924;-69
2021/04/13 07:44:39;;;;;;;;;;;;;;;6.69;59.58;100022.78;5093069;28;19924;-70
2021/04/13 07:47:17;;;;;;;;;;;;;;;6.72;59.73;100038.06;5093331;28;20284;-70
2021/04/13 07:49:48;;;;;;;;;;;;;;;6.61;59.87;100034.47;5093188;28;19932;-71
2021/04/13 07:52:20;;;;;;;;;;;;;;;6.51;59.87;100040.16;5093554;28;20413;-71
2021/04/13 07:54:53;;;;;;;;;;;;;;;6.50;60.31;100038.44;5075273;28;19924;-70
2021/04/13 07:57:28;;;;;;;;;;;;;;;6.56;60.22;100046.19;5092950;28;19924;-70
2021/04/13 07:59:59;;;;;;;;;;;;;;;6.52;60.03;100036.81;5093151;28;20346;-69
2021/04/13 08:02:27;;;;;;;;;;;;;;;6.54;60.54;100040.22;5093353;28;19924;-70
2021/04/13 08:04:57;;;;;;;;;;;;;;;6.52;60.26;100034.28;5093064;28;19924;-69
2021/04/13 08:07:28;;;;;;;;;;;;;;;6.42;60.20;100042.50;5093013;28;19977;-69
2021/04/13 08:10:05;;;;;;;;;;;;;;;6.38;60.68;100028.03;5094807;28;20003;-69
2021/04/13 08:12:33;;;;;;;;;;;;;;;6.34;60.36;100035.53;5096546;28;19978;-70
2021/04/13 08:15:04;;;;;;;;;;;;;;;6.32;60.52;100040.59;5096498;28;19931;-70
2021/04/13 08:17:32;;;;;;;;;;;;;;;6.34;60.77;100053.28;5096596;28;20453;-70
2021/04/13 08:20:01;;;;;;;;;;;;;;;6.29;60.27;100019.38;5096681;28;19924;-70
2021/04/13 08:22:29;;;;;;;;;;;;;;;6.25;60.36;100035.34;5096288;28;19931;-69
2021/04/13 08:24:58;;;;;;;;;;;;;;;6.20;60.45;100030.19;5096406;28;19978;-70
2021/04/13 08:27:38;;;;;;;;;;;;;;;6.20;60.42;100032.72;5096400;28;19924;-70
2021/04/13 08:30:15;;;;;;;;;;;;;;;6.19;60.83;100036.06;5096462;28;20361;-69
2021/04/13 08:32:50;;;;;;;;;;;;;;;6.18;61.05;100036.91;5096277;28;19928;-69
2021/04/13 08:35:27;;;;;;;;;;;;;;;6.14;60.70;100025.00;5096121;28;19933;-70
2021/04/13 08:38:04;;;;;;;;;;;;;;;6.17;61.03;100031.81;5096420;28;20410;-71
2021/04/13 08:40:35;;;;;;;;;;;;;;;6.20;61.16;100034.38;5096072;28;19974;-71
2021/04/13 08:43:13;;;;;;;;;;;;;;;6.17;61.02;100034.34;5096154;28;19924;-67
2021/04/13 08:45:45;;;;;;;;;;;;;;;6.21;60.97;100031.91;5095754;28;20354;-69
2021/04/13 08:48:16;;;;;;;;;;;;;;;6.29;61.28;100035.44;5077960;28;20369;-71
2021/04/13 08:50:45;;;;;;;;;;;;;;;6.31;61.19;100038.03;5095791;28;20443;-72
2021/04/13 08:53:28;;;;;;;;;;;;;;;6.32;61.22;100038.06;5095771;28;19924;-71
2021/04/13 08:56:04;;;;;;;;;;;;;;;6.32;61.32;100045.66;5095814;28;19973;-69
2021/04/13 08:58:34;;;;;;;;;;;;;;;6.28;61.23;100043.88;5095918;28;19963;-71
2021/04/13 09:01:19;;;;;;;;;;;;;;;6.24;61.19;100043.78;5077975;28;19924;-69
2021/04/13 09:03:47;;;;;;;;;;;;;;;6.26;61.28;100040.47;5095729;28;19928;-69
2021/04/13 09:06:18;;;;;;;;;;;;;;;6.22;61.35;100038.66;5077557;28;20340;-70
2021/04/13 09:08:52;;;;;;;;;;;;;;;6.20;61.62;100039.44;5095528;28;20377;-70
2021/04/13 09:11:27;;;;;;;;;;;;;;;6.20;61.82;100035.25;5095462;28;19924;-69
2021/04/13 09:13:57;;;;;;;;;;;;;;;6.22;62.38;100036.13;5095398;28;19924;-70
2021/04/13 09:16:46;;;;;;;;;;;;;;;6.19;62.57;100033.53;5095626;28;19981;-69
2021/04/13 09:19:21;;;;;;;;;;;;;;;6.15;62.86;100036.81;5095686;28;19924;-69
2021/04/13 09:21:51;;;;;;;;;;;;;;;6.09;63.80;100031.63;5095116;28;19964;-72
2021/04/13 09:24:20;;;;;;;;;;;;;;;6.08;64.69;100033.31;5095104;28;19931;-68
2021/04/13 09:26:59;;;;;;;;;;;;;;;5.97;64.65;100031.34;5095139;28;19977;-71
2021/04/13 09:29:32;;;;;;;;;;;;;;;5.92;65.19;100030.38;5094865;28;19924;-70
2021/04/13 10:31:46;;;;;;;;;;;;;;;5.77;69.18;100002.13;4909328;29;19928;-70
2021/04/13 10:34:33;;;;;;;;;;;;;;;5.81;69.26;99993.78;4917528;29;19934;-70
2021/04/13 10:37:10;;;;;;;;;;;;;;;5.82;69.54;100000.56;4917182;29;20022;-70
2021/04/13 10:39:43;;;;;;;;;;;;;;;4.91;69.00;99854.13;4917026;29;19931;-69
2021/04/13 10:42:24;;;;;;;;;;;;;;;5.74;69.14;99995.31;4916488;29;19927;-69
2021/04/13 10:45:08;;;;;;;;;;;;;;;5.69;69.32;99998.53;4899536;29;20478;-69
2021/04/13 10:47:53;;;;;;;;;;;;;;;5.66;69.76;99998.50;4866539;29;19927;-71
2021/04/13 10:50:34;;;;;;;;;;;;;;;5.64;69.47;99992.53;4887083;29;19927;-70
2021/04/13 10:53:16;;;;;;;;;;;;;;;5.69;70.19;99988.41;4917183;29;19931;-71
2021/04/13 10:55:56;;;;;;;;;;;;;;;5.71;70.21;99986.81;4915752;29;19949;-71
2021/04/13 10:58:39;;;;;;;;;;;;;;;5.67;70.22;99988.38;4916978;29;20010;-70
2021/04/13 11:01:24;;;;;;;;;;;;;;;5.61;70.41;100005.13;4916927;29;19935;-70
2021/04/13 11:04:13;;;;;;;;;;;;;;;5.68;70.66;99991.78;4907722;29;20304;-70
2021/04/13 11:07:01;;;;;;;;;;;;;;;5.73;70.70;99982.63;4917259;29;19934;-70
2021/04/13 11:09:42;;;;;;;;;;;;;;;5.78;71.04;99978.53;4885671;29;19931;-70
2021/04/13 11:12:25;;;;;;;;;;;;;;;5.78;71.20;99968.41;4917479;29;19954;-71
2021/04/13 11:15:04;;;;;;;;;;;;;;;5.78;71.29;99968.41;4917512;29;20337;-69
2021/04/13 11:17:42;;;;;;;;;;;;;;;5.72;71.27;99978.38;4917345;29;19970;-69
2021/04/13 11:20:22;;;;;;;;;;;;;;;5.75;71.30;99984.38;4917127;29;20024;-69
2021/04/13 11:23:08;;;;;;;;;;;;;;;5.71;71.19;99976.69;4917224;29;19986;-71
2021/04/13 11:25:47;;;;;;;;;;;;;;;5.65;71.13;99971.44;4915917;29;20018;-71
2021/04/13 11:28:25;;;;;;;;;;;;;;;5.68;71.29;99976.59;4917213;29;19934;-71
2021/04/13 11:31:04;;;;;;;;;;;;;;;5.61;71.48;99979.81;4916750;29;19927;-71
2021/04/13 11:33:43;;;;;;;;;;;;;;;5.55;71.65;99974.56;4917031;29;20365;-70
2021/04/13 11:36:16;;;;;;;;;;;;;;;5.50;72.10;99971.94;4917417;29;19982;-70
2021/04/13 11:38:49;;;;;;;;;;;;;;;5.49;71.60;99984.56;4917148;29;20026;-70
2021/04/13 11:41:30;;;;;;;;;;;;;;;5.50;72.05;99973.63;4916976;29;19931;-71
2021/04/13 11:44:01;;;;;;;;;;;;;;;5.48;72.05;99972.72;4917302;29;19927;-71
2021/04/13 11:46:40;;;;;;;;;;;;;;;5.40;71.85;99973.41;4920584;29;19938;-71
2021/04/13 11:49:11;;;;;;;;;;;;;;;5.42;72.01;99981.88;4920598;29;19934;-71
2021/04/13 11:51:43;;;;;;;;;;;;;;;5.42;72.17;99983.56;4920538;29;20356;-70
2021/04/13 11:54:23;;;;;;;;;;;;;;;5.36;72.08;99976.69;4919178;29;19927;-70
2021/04/13 11:56:58;;;;;;;;;;;;;;;5.37;72.65;99980.06;4920532;29;19931;-71
2021/04/13 11:59:26;;;;;;;;;;;;;;;5.38;72.66;99975.03;4920329;29;20358;-71
2021/04/13 12:01:57;;;;;;;;;;;;;;;5.38;72.49;99972.50;4920235;29;19981;-72
2021/04/13 12:04:27;;;;;;;;;;;;;;;5.37;72.63;99965.72;4920403;29;20049;-71
2021/04/13 12:07:02;;;;;;;;;;;;;;;5.34;72.48;99975.78;4920610;29;19959;-72
2021/04/13 12:09:41;;;;;;;;;;;;;;;5.37;72.92;99975.84;4920249;29;19979;-71
2021/04/13 12:12:24;;;;;;;;;;;;;;;5.32;73.03;99963.91;4920038;29;20286;-70
2021/04/13 12:14:53;;;;;;;;;;;;;;;5.33;72.70;99963.94;4919751;29;19927;-71
2021/04/13 12:17:31;;;;;;;;;;;;;;;5.36;73.46;99951.38;4920085;29;19927;-72
2021/04/13 12:20:10;;;;;;;;;;;;;;;5.33;73.12;99953.81;4919874;29;19946;-70
2021/04/13 12:22:38;;;;;;;;;;;;;;;5.31;73.25;99945.34;4920088;29;19927;-70
2021/04/13 12:25:26;;;;;;;;;;;;;;;5.30;73.65;99941.09;4918709;29;20306;-71
2021/04/13 12:28:01;;;;;;;;;;;;;;;5.34;73.59;99940.38;4919920;29;19927;-71
2021/04/13 12:30:32;;;;;;;;;;;;;;;5.43;73.82;99932.13;4919537;29;19931;-71
2021/04/13 12:33:01;;;;;;;;;;;;;;;5.39;73.57;99935.41;4919725;29;19934;-71
2021/04/13 12:35:44;;;;;;;;;;;;;;;5.39;74.00;99932.88;4919778;29;19931;-71
2021/04/13 12:38:26;;;;;;;;;;;;;;;5.35;73.47;99926.03;4903427;29;20354;-71
2021/04/13 12:41:05;;;;;;;;;;;;;;;5.38;73.68;99921.91;4919688;29;19927;-71
2021/04/13 12:43:41;;;;;;;;;;;;;;;5.44;73.96;99911.06;4919755;29;19934;-71
2021/04/13 12:46:20;;;;;;;;;;;;;;;5.47;74.26;99902.69;4919563;29;20022;-71
2021/04/13 12:48:48;;;;;;;;;;;;;;;5.44;74.29;99906.00;4919612;29;19974;-71
2021/04/13 12:51:20;;;;;;;;;;;;;;;5.34;73.46;99904.94;4919688;29;19982;-71
2021/04/13 12:53:49;;;;;;;;;;;;;;;5.31;73.60;99902.31;4919395;29;19927;-69
2021/04/13 12:56:26;;;;;;;;;;;;;;;5.32;73.95;99886.34;4918984;29;20022;-70
2021/04/13 12:59:09;;;;;;;;;;;;;;;5.43;74.03;99884.91;4918897;29;19998;-71
2021/04/13 13:01:39;;;;;;;;;;;;;;;5.51;74.13;99881.69;4919245;29;19927;-72
2021/04/13 13:04:10;;;;;;;;;;;;;;;5.47;73.74;99877.38;4919274;29;20375;-72
2021/04/13 13:06:40;;;;;;;;;;;;;;;5.53;74.13;99880.91;4919259;29;19931;-69
2021/04/13 13:09:09;;;;;;;;;;;;;;;5.51;73.57;99882.53;4919089;29;19927;-72
2021/04/13 13:11:38;;;;;;;;;;;;;;;5.50;73.84;99868.16;4918949;29;19942;-69
2021/04/13 13:14:07;;;;;;;;;;;;;;;5.49;73.62;99863.09;4919429;29;19931;-71
2021/04/13 13:16:43;;;;;;;;;;;;;;;5.43;72.95;99867.19;4919153;29;20381;-72
2021/04/13 13:19:25;;;;;;;;;;;;;;;5.47;73.55;99860.50;4917896;29;19933;-71
2021/04/13 13:21:54;;;;;;;;;;;;;;;5.54;73.36;99866.56;4885854;29;19934;-72
2021/04/13 13:24:25;;;;;;;;;;;;;;;5.60;73.34;99861.63;4919169;29;20396;-71
2021/04/13 13:26:54;;;;;;;;;;;;;;;5.62;73.10;99865.03;4918876;29;20330;-72
2021/04/13 13:29:22;;;;;;;;;;;;;;;5.63;73.34;99856.66;4917541;29;19933;-71
2021/04/13 13:31:50;;;;;;;;;;;;;;;5.64;73.24;99861.72;4918374;29;19931;-71
2021/04/13 13:34:20;;;;;;;;;;;;;;;5.58;72.95;99854.00;4918508;29;19934;-71
2021/04/13 13:36:48;;;;;;;;;;;;;;;5.59;72.47;99843.06;4918637;29;19928;-71
2021/04/13 13:39:18;;;;;;;;;;;;;;;5.63;72.50;99849.03;4918515;29;19927;-72
2021/04/13 13:41:47;;;;;;;;;;;;;;;5.61;72.34;99845.63;4918428;29;19927;-71
2021/04/13 13:44:22;;;;;;;;;;;;;;;5.59;72.36;99849.81;4918574;29;19938;-71
2021/04/13 13:46:58;;;;;;;;;;;;;;;5.61;72.53;99848.16;4918504;29;19979;-71
2021/04/13 13:49:40;;;;;;;;;;;;;;;5.63;72.58;99859.19;4918395;29;19927;-71
2021/04/13 13:52:09;;;;;;;;;;;;;;;5.57;71.94;99851.44;4918162;29;19949;-72
2021/04/13 13:54:38;;;;;;;;;;;;;;;5.52;71.89;99858.09;4918357;29;19934;-71
2021/04/13 13:57:09;;;;;;;;;;;;;;;5.49;71.60;99852.97;4918541;29;19934;-71
2021/04/13 13:59:42;;;;;;;;;;;;;;;5.48;72.03;99841.09;4918267;29;19928;-71
2021/04/13 14:02:19;;;;;;;;;;;;;;;5.48;71.71;99846.16;4918650;29;19979;-71
2021/04/13 14:04:47;;;;;;;;;;;;;;;5.47;71.90;99834.34;4918412;29;19966;-70
2021/04/13 14:07:25;;;;;;;;;;;;;;;5.49;71.80;99846.22;4917367;29;19986;-71
2021/04/13 14:10:08;;;;;;;;;;;;;;;5.48;71.65;99841.97;4917898;29;19961;-70
2021/04/13 14:12:36;;;;;;;;;;;;;;;5.51;71.75;99842.06;4917905;29;19927;-72
2021/04/13 14:15:12;;;;;;;;;;;;;;;5.54;71.48;99849.72;4916789;29;20385;-71
2021/04/13 14:17:41;;;;;;;;;;;;;;;5.52;71.54;99847.97;4918026;29;19934;-71
2021/04/13 14:20:09;;;;;;;;;;;;;;;5.52;71.05;99842.91;4917993;29;19931;-71